createdAt,value
2017-02-13T01:01:36.750Z,0
2017-02-13T01:02:17.836Z,0
2017-02-13T01:03:17.766Z,0
2017-02-13T01:04:17.711Z,0
2017-02-13T01:05:18.030Z,0
2017-02-13T01:06:17.585Z,0
2017-02-13T01:07:18.204Z,0
2017-02-13T01:08:17.851Z,0
2017-02-13T01:09:17.802Z,0
2017-02-13T01:10:16.939Z,0
2017-02-13T01:11:17.538Z,0
2017-02-13T01:12:17.616Z,0
2017-02-13T01:13:17.523Z,0
2017-02-13T01:14:16.691Z,0
2017-02-13T01:15:17.016Z,0
2017-02-13T01:16:17.343Z,0
2017-02-13T01:17:16.884Z,0
2017-02-13T01:18:16.437Z,0
2017-02-13T01:19:16.761Z,0
2017-02-13T01:20:17.088Z,0
2017-02-13T01:21:17.025Z,0
2017-02-13T01:22:16.559Z,0
2017-02-13T01:23:16.116Z,0
2017-02-13T01:24:16.428Z,0
2017-02-13T01:25:16.372Z,0
2017-02-13T01:26:16.695Z,0
2017-02-13T01:27:16.634Z,0
2017-02-13T01:28:16.218Z,0
2017-02-13T01:29:16.112Z,0
2017-02-13T01:30:16.061Z,0
2017-02-13T01:31:15.220Z,0
2017-02-13T01:32:16.325Z,0
2017-02-13T01:33:16.245Z,0
2017-02-13T01:34:15.807Z,0
2017-02-13T01:35:15.729Z,0
2017-02-13T01:36:16.082Z,0
2017-02-13T01:37:16.006Z,0
2017-02-13T01:38:15.980Z,0
2017-02-13T01:39:14.719Z,0
2017-02-13T01:40:15.427Z,0
2017-02-13T01:41:15.353Z,0
2017-02-13T01:42:14.519Z,0
2017-02-13T01:43:15.244Z,0
2017-02-13T01:44:14.792Z,0
2017-02-13T01:45:14.701Z,0
2017-02-13T01:46:15.442Z,0
2017-02-13T01:47:15.368Z,0
2017-02-13T01:48:14.923Z,0
2017-02-13T01:49:15.378Z,0
2017-02-13T01:50:15.190Z,0
2017-02-13T01:51:14.726Z,0
2017-02-13T01:52:14.649Z,0
2017-02-13T01:53:14.218Z,0
2017-02-13T01:54:14.131Z,0
2017-02-13T01:55:14.465Z,0
2017-02-13T01:56:14.809Z,0
2017-02-13T01:57:14.305Z,0
2017-02-13T01:58:14.660Z,0
2017-02-13T01:59:14.220Z,0
2017-02-13T02:00:14.161Z,0
2017-02-13T02:01:14.083Z,0
2017-02-13T02:02:14.431Z,0
2017-02-13T02:03:13.626Z,0
2017-02-13T02:04:13.503Z,0
2017-02-13T02:05:14.221Z,0
2017-02-13T02:06:13.762Z,0
2017-02-13T02:07:14.085Z,0
2017-02-13T02:08:13.685Z,0
2017-02-13T02:09:13.300Z,0
2017-02-13T02:10:13.147Z,0
2017-02-13T02:11:13.081Z,0
2017-02-13T02:12:13.024Z,0
2017-02-13T02:13:13.743Z,0
2017-02-13T02:14:13.251Z,0
2017-02-13T02:15:12.814Z,0
2017-02-13T02:16:13.525Z,0
2017-02-13T02:17:13.457Z,0
2017-02-13T02:18:13.013Z,0
2017-02-13T02:19:12.940Z,0
2017-02-13T02:20:12.901Z,0
2017-02-13T02:21:13.210Z,0
2017-02-13T02:22:12.747Z,0
2017-02-13T02:23:13.100Z,0
2017-02-13T02:24:12.936Z,0
2017-02-13T02:25:12.228Z,0
2017-02-13T02:26:12.500Z,0
2017-02-13T02:27:12.058Z,0
2017-02-13T02:28:12.391Z,0
2017-02-13T02:29:12.710Z,0
2017-02-13T02:30:12.234Z,0
2017-02-13T02:31:12.573Z,0
2017-02-13T02:32:11.757Z,0
2017-02-13T02:33:12.465Z,0
2017-02-13T02:34:12.375Z,0
2017-02-13T02:35:11.136Z,0
2017-02-13T02:36:12.145Z,0
2017-02-13T02:37:12.226Z,0
2017-02-13T02:38:11.737Z,0
2017-02-13T02:39:10.896Z,0
2017-02-13T02:40:11.993Z,0
2017-02-13T02:41:11.164Z,0
2017-02-13T02:42:11.882Z,0
2017-02-13T02:43:11.444Z,0
2017-02-13T02:44:11.741Z,0
2017-02-13T02:45:11.669Z,0
2017-02-13T02:46:11.237Z,0
2017-02-13T02:47:11.213Z,0
2017-02-13T02:48:11.481Z,0
2017-02-13T02:49:11.041Z,0
2017-02-13T02:50:11.083Z,0
2017-02-13T02:51:11.313Z,0
2017-02-13T02:52:10.836Z,0
2017-02-13T02:53:11.174Z,0
2017-02-13T02:54:09.952Z,0
2017-02-13T02:55:10.257Z,0
2017-02-13T02:56:10.608Z,0
2017-02-13T02:57:10.524Z,0
2017-02-13T02:58:10.471Z,0
2017-02-13T02:59:10.791Z,0
2017-02-13T03:00:10.632Z,0
2017-02-13T03:01:10.664Z,0
2017-02-13T03:02:10.214Z,0
2017-02-13T03:03:09.773Z,0
2017-02-13T03:04:10.512Z,0
2017-02-13T03:05:10.022Z,0
2017-02-13T03:06:09.567Z,0
2017-02-13T03:07:10.289Z,0
2017-02-13T03:08:10.210Z,0
2017-02-13T03:09:10.213Z,0
2017-02-13T03:10:09.691Z,0
2017-02-13T03:11:09.675Z,0
2017-02-13T03:12:09.189Z,0
2017-02-13T03:13:09.898Z,0
2017-02-13T03:14:09.867Z,0
2017-02-13T03:15:09.394Z,0
2017-02-13T03:16:09.015Z,0
2017-02-13T03:17:09.674Z,0
2017-02-13T03:18:09.614Z,0
2017-02-13T03:19:08.751Z,0
2017-02-13T03:20:09.468Z,0
2017-02-13T03:21:09.386Z,0
2017-02-13T03:22:09.321Z,0
2017-02-13T03:23:08.509Z,0
2017-02-13T03:24:08.462Z,0
2017-02-13T03:25:08.764Z,0
2017-02-13T03:26:08.355Z,0
2017-02-13T03:27:08.620Z,0
2017-02-13T03:28:08.576Z,0
2017-02-13T03:29:08.896Z,0
2017-02-13T03:30:08.816Z,0
2017-02-13T03:31:08.364Z,0
2017-02-13T03:32:08.696Z,0
2017-02-13T03:33:08.266Z,0
2017-02-13T03:34:08.554Z,0
2017-02-13T03:35:07.732Z,0
2017-02-13T03:36:08.041Z,0
2017-02-13T03:37:08.017Z,0
2017-02-13T03:38:07.537Z,0
2017-02-13T03:39:08.256Z,0
2017-02-13T03:40:07.784Z,0
2017-02-13T03:41:08.124Z,0
2017-02-13T03:42:07.701Z,0
2017-02-13T03:43:07.992Z,0
2017-02-13T03:44:07.149Z,0
2017-02-13T03:45:07.474Z,0
2017-02-13T03:46:08.111Z,0
2017-02-13T03:47:07.358Z,0
2017-02-13T03:48:07.276Z,0
2017-02-13T03:49:07.219Z,0
2017-02-13T03:50:07.176Z,0
2017-02-13T03:51:07.098Z,0
2017-02-13T03:52:07.040Z,0
2017-02-13T03:53:06.976Z,0
2017-02-13T03:54:07.207Z,0
2017-02-13T03:55:07.266Z,0
2017-02-13T03:56:06.786Z,0
2017-02-13T03:57:06.726Z,0
2017-02-13T03:58:07.050Z,0
2017-02-13T03:59:06.586Z,0
2017-02-13T04:00:06.213Z,0
2017-02-13T04:01:06.457Z,0
2017-02-13T04:02:06.396Z,0
2017-02-13T04:03:06.746Z,0
2017-02-13T04:04:06.662Z,0
2017-02-13T04:05:05.813Z,0
2017-02-13T04:06:06.147Z,0
2017-02-13T04:07:06.103Z,0
2017-02-13T04:08:06.073Z,0
2017-02-13T04:09:06.343Z,0
2017-02-13T04:10:05.882Z,0
2017-02-13T04:11:05.849Z,0
2017-02-13T04:12:06.155Z,0
2017-02-13T04:13:06.083Z,0
2017-02-13T04:14:06.017Z,0
2017-02-13T04:15:05.993Z,0
2017-02-13T04:16:05.514Z,0
2017-02-13T04:17:05.453Z,0
2017-02-13T04:18:05.375Z,0
2017-02-13T04:19:05.342Z,0
2017-02-13T04:20:05.271Z,0
2017-02-13T04:21:05.212Z,0
2017-02-13T04:22:05.135Z,0
2017-02-13T04:23:05.080Z,0
2017-02-13T04:24:05.012Z,0
2017-02-13T04:25:04.946Z,0
2017-02-13T04:26:04.095Z,0
2017-02-13T04:27:05.209Z,0
2017-02-13T04:28:05.139Z,0
2017-02-13T04:29:05.080Z,0
2017-02-13T04:30:04.616Z,0
2017-02-13T04:31:04.558Z,0
2017-02-13T04:32:04.097Z,0
2017-02-13T04:33:04.044Z,0
2017-02-13T04:34:04.771Z,0
2017-02-13T04:35:04.318Z,0
2017-02-13T04:36:04.651Z,0
2017-02-13T04:37:04.575Z,0
2017-02-13T04:38:04.509Z,0
2017-02-13T04:39:04.464Z,0
2017-02-13T04:40:03.983Z,0
2017-02-13T04:41:03.921Z,0
2017-02-13T04:42:04.239Z,0
2017-02-13T04:43:04.174Z,0
2017-02-13T04:44:03.330Z,0
2017-02-13T04:45:04.091Z,0
2017-02-13T04:46:03.593Z,0
2017-02-13T04:47:02.768Z,0
2017-02-13T04:48:03.081Z,0
2017-02-13T04:49:03.435Z,0
2017-02-13T04:50:02.973Z,0
2017-02-13T04:51:02.881Z,0
2017-02-13T04:52:02.826Z,0
2017-02-13T04:53:03.173Z,0
2017-02-13T04:54:03.083Z,0
2017-02-13T04:55:03.032Z,0
2017-02-13T04:56:03.356Z,0
2017-02-13T04:57:02.892Z,0
2017-02-13T04:58:03.236Z,0
2017-02-13T04:59:02.770Z,0
2017-02-13T05:00:02.730Z,0
2017-02-13T05:01:03.033Z,0
2017-02-13T05:02:07.970Z,0
2017-02-13T05:03:02.529Z,0
2017-02-13T05:04:02.457Z,0
2017-02-13T05:05:02.774Z,0
2017-02-13T05:06:01.926Z,0
2017-02-13T05:07:02.274Z,0
2017-02-13T05:08:02.212Z,0
2017-02-13T05:09:02.173Z,0
2017-02-13T05:10:02.061Z,0
2017-02-13T05:11:02.421Z,0
2017-02-13T05:12:02.236Z,0
2017-02-13T05:13:02.268Z,0
2017-02-13T05:14:02.201Z,0
2017-02-13T05:15:02.135Z,0
2017-02-13T05:16:01.698Z,0
2017-02-13T05:17:02.013Z,0
2017-02-13T05:18:01.953Z,0
2017-02-13T05:19:01.893Z,0
2017-02-13T05:20:01.441Z,0
2017-02-13T05:21:01.746Z,0
2017-02-13T05:22:01.317Z,0
2017-02-13T05:23:01.246Z,0
2017-02-13T05:24:01.177Z,0
2017-02-13T05:25:01.116Z,0
2017-02-13T05:26:00.662Z,0
2017-02-13T05:27:01.383Z,0
2017-02-13T05:28:00.931Z,0
2017-02-13T05:29:01.271Z,0
2017-02-13T05:30:01.189Z,0
2017-02-13T05:31:00.733Z,0
2017-02-13T05:32:00.266Z,0
2017-02-13T05:33:00.637Z,0
2017-02-13T05:34:00.953Z,0
2017-02-13T05:35:00.471Z,0
2017-02-13T05:36:00.816Z,0
2017-02-13T05:37:00.733Z,0
2017-02-13T05:38:00.277Z,0
2017-02-13T05:39:00.218Z,0
2017-02-13T05:40:00.147Z,0
2017-02-13T05:41:00.476Z,0
2017-02-13T05:41:59.632Z,0
2017-02-13T05:42:59.976Z,0
2017-02-13T05:43:59.894Z,0
2017-02-13T05:44:59.447Z,0
2017-02-13T05:45:59.379Z,0
2017-02-13T05:46:59.719Z,0
2017-02-13T05:48:00.037Z,0
2017-02-13T05:48:59.267Z,0
2017-02-13T05:49:59.926Z,0
2017-02-13T05:50:59.838Z,0
2017-02-13T05:51:59.394Z,0
2017-02-13T05:52:59.708Z,0
2017-02-13T05:53:58.897Z,0
2017-02-13T05:54:58.817Z,0
2017-02-13T05:55:59.536Z,0
2017-02-13T05:56:58.296Z,0
2017-02-13T05:57:59.391Z,0
2017-02-13T05:58:59.225Z,0
2017-02-13T05:59:59.269Z,0
2017-02-13T06:00:58.427Z,0
2017-02-13T06:01:58.775Z,0
2017-02-13T06:02:59.080Z,0
2017-02-13T06:03:58.629Z,0
2017-02-13T06:04:58.559Z,0
2017-02-13T06:05:58.491Z,0
2017-02-13T06:06:58.823Z,4
2017-02-13T06:07:58.358Z,4
2017-02-13T06:08:57.919Z,4
2017-02-13T06:09:58.262Z,4
2017-02-13T06:10:58.569Z,4
2017-02-13T06:11:57.727Z,4
2017-02-13T06:12:58.118Z,4
2017-02-13T06:13:57.989Z,4
2017-02-13T06:14:57.141Z,4
2017-02-13T06:15:58.251Z,4
2017-02-13T06:16:58.199Z,4
2017-02-13T06:17:58.127Z,4
2017-02-13T06:18:57.681Z,4
2017-02-13T06:19:58.003Z,4
2017-02-13T06:20:58.073Z,4
2017-02-13T06:21:57.487Z,4
2017-02-13T06:22:57.796Z,4
2017-02-13T06:23:57.347Z,4
2017-02-13T06:24:57.276Z,4
2017-02-13T06:25:57.227Z,4
2017-02-13T06:26:57.546Z,4
2017-02-13T06:27:56.704Z,4
2017-02-13T06:28:57.039Z,4
2017-02-13T06:29:57.383Z,4
2017-02-13T06:30:56.552Z,4
2017-02-13T06:31:56.837Z,4
2017-02-13T06:32:57.172Z,4
2017-02-13T06:33:57.114Z,4
2017-02-13T06:34:57.019Z,4
2017-02-13T06:35:56.959Z,4
2017-02-13T06:36:57.197Z,0
2017-02-13T06:37:56.458Z,4
2017-02-13T06:38:56.777Z,4
2017-02-13T06:39:55.924Z,4
2017-02-13T06:40:56.291Z,4
2017-02-13T06:41:55.817Z,4
2017-02-13T06:42:56.538Z,4
2017-02-13T06:43:55.689Z,4
2017-02-13T06:44:56.396Z,4
2017-02-13T06:45:55.545Z,4
2017-02-13T06:46:56.282Z,4
2017-02-13T06:47:55.807Z,4
2017-02-13T06:48:55.763Z,8
2017-02-13T06:49:55.303Z,8
2017-02-13T06:50:56.030Z,8
2017-02-13T06:51:55.936Z,8
2017-02-13T06:52:55.483Z,8
2017-02-13T06:53:55.444Z,8
2017-02-13T06:54:55.360Z,8
2017-02-13T06:55:55.959Z,8
2017-02-13T06:56:55.620Z,4
2017-02-13T06:57:54.783Z,4
2017-02-13T06:58:55.101Z,8
2017-02-13T06:59:54.654Z,8
2017-02-13T07:00:54.983Z,8
2017-02-13T07:01:54.924Z,8
2017-02-13T07:02:54.473Z,8
2017-02-13T07:03:54.417Z,8
2017-02-13T07:04:54.729Z,8
2017-02-13T07:05:55.049Z,8
2017-02-13T07:06:54.980Z,8
2017-02-13T07:07:54.526Z,12
2017-02-13T07:08:54.871Z,16
2017-02-13T07:09:54.053Z,16
2017-02-13T07:10:54.341Z,16
2017-02-13T07:11:54.284Z,16
2017-02-13T07:12:54.263Z,12
2017-02-13T07:13:54.159Z,16
2017-02-13T07:14:54.117Z,16
2017-02-13T07:15:54.440Z,12
2017-02-13T07:16:54.357Z,16
2017-02-13T07:17:54.294Z,16
2017-02-13T07:18:54.161Z,16
2017-02-13T07:19:54.153Z,16
2017-02-13T07:20:53.306Z,16
2017-02-13T07:21:54.025Z,16
2017-02-13T07:22:53.586Z,16
2017-02-13T07:23:53.516Z,16
2017-02-13T07:24:53.053Z,16
2017-02-13T07:25:53.839Z,16
2017-02-13T07:26:52.934Z,16
2017-02-13T07:27:53.647Z,16
2017-02-13T07:28:52.796Z,20
2017-02-13T07:29:53.120Z,20
2017-02-13T07:30:53.099Z,20
2017-02-13T07:31:53.017Z,20
2017-02-13T07:32:53.341Z,20
2017-02-13T07:33:52.873Z,20
2017-02-13T07:34:52.806Z,20
2017-02-13T07:35:53.133Z,20
2017-02-13T07:36:53.061Z,24
2017-02-13T07:37:52.612Z,28
2017-02-13T07:38:52.176Z,20
2017-02-13T07:39:52.491Z,24
2017-02-13T07:40:52.805Z,20
2017-02-13T07:41:52.764Z,20
2017-02-13T07:42:52.288Z,20
2017-02-13T07:43:52.641Z,20
2017-02-13T07:44:52.562Z,20
2017-02-13T07:45:52.110Z,20
2017-02-13T07:46:52.047Z,20
2017-02-13T07:47:52.389Z,20
2017-02-13T07:48:51.923Z,20
2017-02-13T07:49:51.845Z,24
2017-02-13T07:50:52.085Z,24
2017-02-13T07:51:52.189Z,20
2017-02-13T07:52:51.650Z,24
2017-02-13T07:53:51.214Z,24
2017-02-13T07:54:51.341Z,24
2017-02-13T07:55:52.064Z,24
2017-02-13T07:56:51.592Z,20
2017-02-13T07:57:51.358Z,20
2017-02-13T07:58:51.286Z,20
2017-02-13T07:59:51.744Z,20
2017-02-13T08:00:51.580Z,20
2017-02-13T08:01:51.097Z,20
2017-02-13T08:02:51.019Z,24
2017-02-13T08:03:50.577Z,20
2017-02-13T08:04:51.295Z,24
2017-02-13T08:05:50.821Z,20
2017-02-13T08:06:51.060Z,28
2017-02-13T08:07:50.332Z,28
2017-02-13T08:08:50.255Z,28
2017-02-13T08:09:50.959Z,28
2017-02-13T08:10:50.509Z,32
2017-02-13T08:11:50.075Z,32
2017-02-13T08:12:50.112Z,36
2017-02-13T08:13:50.871Z,24
2017-02-13T08:14:50.254Z,32
2017-02-13T08:15:50.565Z,28
2017-02-13T08:16:50.144Z,28
2017-02-13T08:17:49.702Z,28
2017-02-13T08:18:50.476Z,28
2017-02-13T08:19:50.011Z,28
2017-02-13T08:20:49.721Z,32
2017-02-13T08:21:49.813Z,32
2017-02-13T08:22:49.738Z,32
2017-02-13T08:23:49.685Z,32
2017-02-13T08:24:49.621Z,32
2017-02-13T08:25:49.158Z,28
2017-02-13T08:26:49.479Z,28
2017-02-13T08:27:49.445Z,28
2017-02-13T08:28:49.372Z,28
2017-02-13T08:29:49.696Z,32
2017-02-13T08:30:49.277Z,28
2017-02-13T08:31:48.783Z,28
2017-02-13T08:32:49.542Z,116
2017-02-13T08:33:48.875Z,156
2017-02-13T08:34:49.221Z,172
2017-02-13T08:35:48.909Z,176
2017-02-13T08:36:48.875Z,176
2017-02-13T08:37:49.183Z,176
2017-02-13T08:38:49.109Z,172
2017-02-13T08:39:48.657Z,176
2017-02-13T08:40:48.976Z,176
2017-02-13T08:41:48.148Z,172
2017-02-13T08:42:48.855Z,172
2017-02-13T08:43:48.810Z,172
2017-02-13T08:44:48.339Z,172
2017-02-13T08:45:47.901Z,172
2017-02-13T08:46:47.824Z,172
2017-02-13T08:47:48.139Z,168
2017-02-13T08:48:47.699Z,172
2017-02-13T08:49:48.042Z,172
2017-02-13T08:50:48.374Z,168
2017-02-13T08:51:47.891Z,168
2017-02-13T08:52:48.224Z,172
2017-02-13T08:53:48.165Z,168
2017-02-13T08:54:47.708Z,168
2017-02-13T08:55:47.635Z,172
2017-02-13T08:56:47.992Z,168
2017-02-13T08:57:47.897Z,168
2017-02-13T08:58:47.467Z,168
2017-02-13T08:59:47.769Z,168
2017-02-13T09:00:47.711Z,168
2017-02-13T09:01:46.876Z,168
2017-02-13T09:02:47.582Z,168
2017-02-13T09:03:47.138Z,168
2017-02-13T09:04:47.547Z,168
2017-02-13T09:05:47.022Z,168
2017-02-13T09:06:46.963Z,168
2017-02-13T09:07:47.267Z,168
2017-02-13T09:08:46.821Z,168
2017-02-13T09:09:46.742Z,168
2017-02-13T09:10:46.689Z,168
2017-02-13T09:11:45.885Z,168
2017-02-13T09:12:46.964Z,168
2017-02-13T09:13:46.877Z,168
2017-02-13T09:14:46.817Z,168
2017-02-13T09:15:46.775Z,168
2017-02-13T09:16:46.689Z,168
2017-02-13T09:17:45.868Z,168
2017-02-13T09:18:45.798Z,168
2017-02-13T09:19:45.718Z,168
2017-02-13T09:20:45.696Z,168
2017-02-13T09:21:46.368Z,28
2017-02-13T09:22:45.924Z,28
2017-02-13T09:23:45.860Z,28
2017-02-13T09:24:46.172Z,28
2017-02-13T09:25:45.745Z,32
2017-02-13T09:26:45.687Z,28
2017-02-13T09:27:45.625Z,32
2017-02-13T09:28:45.622Z,28
2017-02-13T09:29:45.872Z,32
2017-02-13T09:30:45.703Z,32
2017-02-13T09:31:45.735Z,28
2017-02-13T09:32:45.671Z,28
2017-02-13T09:33:44.831Z,28
2017-02-13T09:34:44.778Z,28
2017-02-13T09:35:44.975Z,32
2017-02-13T09:36:44.672Z,28
2017-02-13T09:37:44.962Z,32
2017-02-13T09:38:44.653Z,28
2017-02-13T09:39:44.461Z,28
2017-02-13T09:40:44.654Z,32
2017-02-13T09:41:44.720Z,28
2017-02-13T09:42:44.268Z,28
2017-02-13T09:43:44.198Z,32
2017-02-13T09:44:44.947Z,32
2017-02-13T09:45:45.296Z,32
2017-02-13T09:46:44.812Z,32
2017-02-13T09:47:44.586Z,28
2017-02-13T09:48:43.889Z,28
2017-02-13T09:49:44.218Z,32
2017-02-13T09:50:44.669Z,28
2017-02-13T09:51:44.353Z,28
2017-02-13T09:52:44.436Z,28
2017-02-13T09:53:43.903Z,28
2017-02-13T09:54:44.144Z,24
2017-02-13T09:55:44.069Z,24
2017-02-13T09:56:43.963Z,24
2017-02-13T09:57:43.939Z,24
2017-02-13T09:58:43.647Z,28
2017-02-13T09:59:43.963Z,28
2017-02-13T10:00:43.564Z,32
2017-02-13T10:01:43.846Z,28
2017-02-13T10:02:52.275Z,32
2017-02-13T10:03:43.322Z,28
2017-02-13T10:04:43.256Z,28
2017-02-13T10:05:43.587Z,32
2017-02-13T10:06:43.551Z,28
2017-02-13T10:07:43.063Z,28
2017-02-13T10:08:43.005Z,28
2017-02-13T10:09:42.939Z,28
2017-02-13T10:10:42.878Z,28
2017-02-13T10:11:43.449Z,24
2017-02-13T10:12:42.758Z,28
2017-02-13T10:13:42.680Z,28
2017-02-13T10:14:42.263Z,32
2017-02-13T10:15:42.974Z,32
2017-02-13T10:16:42.522Z,32
2017-02-13T10:17:42.869Z,28
2017-02-13T10:18:41.988Z,28
2017-02-13T10:19:41.940Z,28
2017-02-13T10:20:41.865Z,28
2017-02-13T10:21:42.473Z,28
2017-02-13T10:22:42.515Z,28
2017-02-13T10:23:42.048Z,28
2017-02-13T10:24:42.011Z,28
2017-02-13T10:25:42.323Z,24
2017-02-13T10:26:41.878Z,28
2017-02-13T10:27:41.011Z,116
2017-02-13T10:28:41.742Z,156
2017-02-13T10:29:42.059Z,172
2017-02-13T10:30:41.607Z,172
2017-02-13T10:31:41.951Z,172
2017-02-13T10:32:41.506Z,168
2017-02-13T10:33:41.426Z,168
2017-02-13T10:34:41.988Z,172
2017-02-13T10:35:41.301Z,172
2017-02-13T10:36:41.224Z,168
2017-02-13T10:37:41.196Z,168
2017-02-13T10:38:41.510Z,168
2017-02-13T10:39:41.073Z,168
2017-02-13T10:40:41.130Z,168
2017-02-13T10:41:41.316Z,168
2017-02-13T10:42:41.260Z,168
2017-02-13T10:43:40.781Z,168
2017-02-13T10:44:41.107Z,168
2017-02-13T10:45:41.257Z,168
2017-02-13T10:46:41.042Z,168
2017-02-13T10:47:40.168Z,168
2017-02-13T10:48:40.091Z,168
2017-02-13T10:49:41.079Z,168
2017-02-13T10:50:40.731Z,164
2017-02-13T10:51:40.272Z,168
2017-02-13T10:52:40.638Z,168
2017-02-13T10:53:40.528Z,168
2017-02-13T10:54:40.467Z,168
2017-02-13T10:55:39.636Z,168
2017-02-13T10:56:40.631Z,164
2017-02-13T10:57:39.498Z,164
2017-02-13T10:58:39.514Z,168
2017-02-13T10:59:40.169Z,164
2017-02-13T11:00:39.706Z,168
2017-02-13T11:01:39.654Z,164
2017-02-13T11:02:39.185Z,164
2017-02-13T11:03:40.182Z,164
2017-02-13T11:04:39.899Z,164
2017-02-13T11:05:38.993Z,164
2017-02-13T11:06:39.341Z,164
2017-02-13T11:07:39.269Z,164
2017-02-13T11:08:38.814Z,164
2017-02-13T11:09:39.531Z,164
2017-02-13T11:10:39.445Z,164
2017-02-13T11:11:39.434Z,164
2017-02-13T11:12:38.957Z,164
2017-02-13T11:13:39.274Z,164
2017-02-13T11:14:38.427Z,164
2017-02-13T11:15:38.385Z,164
2017-02-13T11:16:38.723Z,168
2017-02-13T11:17:38.248Z,164
2017-02-13T11:18:38.598Z,168
2017-02-13T11:19:38.489Z,168
2017-02-13T11:20:38.682Z,168
2017-02-13T11:21:37.983Z,168
2017-02-13T11:22:37.974Z,168
2017-02-13T11:23:38.637Z,164
2017-02-13T11:24:38.174Z,164
2017-02-13T11:25:38.766Z,168
2017-02-13T11:26:38.071Z,168
2017-02-13T11:27:37.641Z,164
2017-02-13T11:28:38.330Z,168
2017-02-13T11:29:37.484Z,168
2017-02-13T11:30:37.423Z,168
2017-02-13T11:31:37.728Z,164
2017-02-13T11:32:38.067Z,168
2017-02-13T11:33:37.617Z,168
2017-02-13T11:34:37.956Z,168
2017-02-13T11:35:37.871Z,168
2017-02-13T11:36:37.329Z,168
2017-02-13T11:37:37.366Z,168
2017-02-13T11:38:37.352Z,168
2017-02-13T11:39:37.543Z,168
2017-02-13T11:40:36.411Z,168
2017-02-13T11:41:37.496Z,168
2017-02-13T11:42:36.648Z,168
2017-02-13T11:43:36.981Z,168
2017-02-13T11:44:37.290Z,168
2017-02-13T11:45:36.845Z,28
2017-02-13T11:46:36.777Z,28
2017-02-13T11:47:36.721Z,28
2017-02-13T11:48:36.275Z,24
2017-02-13T11:49:36.226Z,28
2017-02-13T11:50:36.918Z,28
2017-02-13T11:51:36.513Z,28
2017-02-13T11:52:36.450Z,28
2017-02-13T11:53:36.719Z,28
2017-02-13T11:54:36.269Z,28
2017-02-13T11:55:35.437Z,28
2017-02-13T11:56:36.160Z,28
2017-02-13T11:57:36.151Z,28
2017-02-13T11:58:35.651Z,28
2017-02-13T11:59:35.957Z,28
2017-02-13T12:00:36.284Z,28
2017-02-13T12:01:36.231Z,28
2017-02-13T12:02:36.461Z,28
2017-02-13T12:03:35.706Z,28
2017-02-13T12:04:35.929Z,28
2017-02-13T12:05:35.981Z,28
2017-02-13T12:06:35.911Z,28
2017-02-13T12:07:35.468Z,28
2017-02-13T12:08:35.773Z,32
2017-02-13T12:09:35.346Z,32
2017-02-13T12:10:35.781Z,28
2017-02-13T12:11:35.225Z,32
2017-02-13T12:12:35.517Z,28
2017-02-13T12:13:35.071Z,28
2017-02-13T12:14:34.635Z,32
2017-02-13T12:15:34.970Z,128
2017-02-13T12:16:34.947Z,164
2017-02-13T12:17:34.821Z,172
2017-02-13T12:18:34.751Z,28
2017-02-13T12:19:34.679Z,28
2017-02-13T12:20:34.354Z,32
2017-02-13T12:21:34.557Z,32
2017-02-13T12:22:34.733Z,32
2017-02-13T12:23:34.298Z,28
2017-02-13T12:24:34.619Z,32
2017-02-13T12:25:33.985Z,28
2017-02-13T12:26:33.856Z,28
2017-02-13T12:27:34.556Z,32
2017-02-13T12:28:34.756Z,28
2017-02-13T12:29:34.448Z,32
2017-02-13T12:30:33.990Z,28
2017-02-13T12:31:33.925Z,28
2017-02-13T12:32:33.871Z,28
2017-02-13T12:33:33.658Z,28
2017-02-13T12:34:34.117Z,28
2017-02-13T12:35:33.683Z,28
2017-02-13T12:36:34.019Z,28
2017-02-13T12:37:33.948Z,28
2017-02-13T12:38:33.873Z,28
2017-02-13T12:39:33.802Z,28
2017-02-13T12:40:33.743Z,28
2017-02-13T12:41:33.673Z,28
2017-02-13T12:42:33.285Z,28
2017-02-13T12:43:33.256Z,28
2017-02-13T12:45:39.075Z,28
2017-02-13T12:45:49.781Z,28
2017-02-13T12:46:49.306Z,28
2017-02-13T12:47:49.645Z,28
2017-02-13T12:48:49.184Z,28
2017-02-13T12:49:49.107Z,28
2017-02-13T12:50:49.438Z,28
2017-02-13T12:51:49.371Z,28
2017-02-13T12:52:48.922Z,28
2017-02-13T12:53:48.860Z,28
2017-02-13T12:54:48.779Z,28
2017-02-13T12:55:49.128Z,28
2017-02-13T12:56:49.048Z,28
2017-02-13T12:57:48.620Z,28
2017-02-13T12:58:48.536Z,28
2017-02-13T12:59:48.476Z,28
2017-02-13T13:00:48.407Z,28
2017-02-13T13:01:48.782Z,140
2017-02-13T13:02:48.276Z,164
2017-02-13T13:03:48.525Z,172
2017-02-13T13:04:48.552Z,176
2017-02-13T13:05:48.119Z,176
2017-02-13T13:06:47.650Z,172
2017-02-13T13:07:47.966Z,176
2017-02-13T13:08:47.542Z,172
2017-02-13T13:09:47.474Z,172
2017-02-13T13:10:47.493Z,172
2017-02-13T13:11:47.935Z,172
2017-02-13T13:12:47.330Z,172
2017-02-13T13:13:47.199Z,168
2017-02-13T13:14:47.912Z,168
2017-02-13T13:15:47.916Z,168
2017-02-13T13:16:47.999Z,172
2017-02-13T13:17:48.010Z,172
2017-02-13T13:18:47.661Z,172
2017-02-13T13:19:47.493Z,172
2017-02-13T13:20:46.751Z,172
2017-02-13T13:21:47.474Z,172
2017-02-13T13:22:46.649Z,172
2017-02-13T13:23:46.959Z,168
2017-02-13T13:24:46.884Z,168
2017-02-13T13:25:47.246Z,168
2017-02-13T13:26:46.763Z,168
2017-02-13T13:27:47.377Z,168
2017-02-13T13:28:46.712Z,168
2017-02-13T13:29:46.579Z,168
2017-02-13T13:30:46.888Z,168
2017-02-13T13:31:46.048Z,168
2017-02-13T13:32:46.410Z,168
2017-02-13T13:33:46.304Z,168
2017-02-13T13:34:46.265Z,168
2017-02-13T13:35:46.202Z,164
2017-02-13T13:36:46.123Z,164
2017-02-13T13:37:45.754Z,164
2017-02-13T13:38:46.387Z,164
2017-02-13T13:39:45.535Z,168
2017-02-13T13:40:46.170Z,168
2017-02-13T13:41:45.415Z,164
2017-02-13T13:42:45.789Z,168
2017-02-13T13:43:45.476Z,164
2017-02-13T13:44:45.662Z,164
2017-02-13T13:45:45.934Z,168
2017-02-13T13:46:45.522Z,168
2017-02-13T13:47:45.429Z,168
2017-02-13T13:48:45.364Z,168
2017-02-13T13:49:45.839Z,168
2017-02-13T13:50:45.217Z,168
2017-02-13T13:51:45.236Z,168
2017-02-13T13:52:44.710Z,168
2017-02-13T13:53:45.129Z,168
2017-02-13T13:54:45.359Z,168
2017-02-13T13:55:45.678Z,164
2017-02-13T13:56:44.883Z,168
2017-02-13T13:57:45.250Z,168
2017-02-13T13:58:44.725Z,168
2017-02-13T13:59:44.515Z,164
2017-02-13T14:00:44.993Z,164
2017-02-13T14:01:44.545Z,164
2017-02-13T14:02:44.875Z,164
2017-02-13T14:03:44.414Z,164
2017-02-13T14:04:44.915Z,24
2017-02-13T14:05:44.263Z,24
2017-02-13T14:06:44.275Z,24
2017-02-13T14:07:44.240Z,24
2017-02-13T14:08:44.249Z,24
2017-02-13T14:09:44.560Z,28
2017-02-13T14:10:44.610Z,28
2017-02-13T14:11:44.267Z,24
2017-02-13T14:12:44.398Z,24
2017-02-13T14:13:43.367Z,24
2017-02-13T14:14:43.298Z,24
2017-02-13T14:15:43.650Z,24
2017-02-13T14:16:43.644Z,24
2017-02-13T14:17:43.178Z,24
2017-02-13T14:18:43.169Z,24
2017-02-13T14:19:43.812Z,24
2017-02-13T14:20:43.319Z,24
2017-02-13T14:21:43.712Z,24
2017-02-13T14:22:43.187Z,24
2017-02-13T14:23:43.517Z,24
2017-02-13T14:24:43.527Z,20
2017-02-13T14:25:43.002Z,24
2017-02-13T14:26:42.967Z,24
2017-02-13T14:27:43.269Z,24
2017-02-13T14:28:42.423Z,24
2017-02-13T14:29:43.135Z,24
2017-02-13T14:30:43.069Z,24
2017-02-13T14:31:42.669Z,28
2017-02-13T14:32:41.802Z,24
2017-02-13T14:33:42.120Z,28
2017-02-13T14:34:42.039Z,28
2017-02-13T14:35:42.799Z,28
2017-02-13T14:36:42.285Z,24
2017-02-13T14:37:42.623Z,24
2017-02-13T14:38:42.425Z,24
2017-02-13T14:39:42.506Z,24
2017-02-13T14:40:42.578Z,24
2017-02-13T14:41:41.999Z,24
2017-02-13T14:42:41.945Z,24
2017-02-13T14:43:42.252Z,24
2017-02-13T14:44:41.398Z,24
2017-02-13T14:45:41.323Z,24
2017-02-13T14:46:41.643Z,24
2017-02-13T14:47:41.225Z,24
2017-02-13T14:48:41.954Z,24
2017-02-13T14:49:41.461Z,20
2017-02-13T14:50:41.409Z,20
2017-02-13T14:51:41.727Z,20
2017-02-13T14:52:40.914Z,20
2017-02-13T14:53:41.600Z,20
2017-02-13T14:54:41.155Z,20
2017-02-13T14:55:41.216Z,20
2017-02-13T14:56:41.516Z,20
2017-02-13T14:57:41.014Z,20
2017-02-13T14:58:40.499Z,20
2017-02-13T14:59:40.835Z,20
2017-02-13T15:00:40.942Z,20
2017-02-13T15:01:39.933Z,16
2017-02-13T15:02:40.673Z,140
2017-02-13T15:03:41.986Z,156
2017-02-13T15:04:40.566Z,160
2017-02-13T15:05:40.456Z,160
2017-02-13T15:06:40.408Z,160
2017-02-13T15:07:41.465Z,156
2017-02-13T15:08:40.705Z,156
2017-02-13T15:09:40.285Z,160
2017-02-13T15:10:41.330Z,156
2017-02-13T15:11:40.090Z,160
2017-02-13T15:12:40.004Z,160
2017-02-13T15:13:40.013Z,160
2017-02-13T15:14:39.950Z,160
2017-02-13T15:15:39.440Z,160
2017-02-13T15:16:39.377Z,156
2017-02-13T15:17:40.059Z,156
2017-02-13T15:18:39.609Z,156
2017-02-13T15:19:40.034Z,160
2017-02-13T15:20:39.224Z,156
2017-02-13T15:21:39.097Z,156